Time;durP1;ratioP1;P1;durP2;ratioP2;P2;SDS_P1;SDS_P2;PMS_P1;PMS_P2;Temp;Humidity;BMP_temperature;BMP_pressure;BME280_temperature;BME280_humidity;BME280_pressure;Samples;Min_cycle;Max_cycle;Signal;HPM_P1;HPM_P2
2021/03/20 00:02:14;;;;;;;;;;;-2.60;99.90;;;;;;5097134;28;19908;-81
2021/03/20 00:04:39;;;;;;;;;;;-2.60;99.90;;;;;;5097427;28;20405;-81
2021/03/20 00:07:05;;;;;;;;;;;-2.60;99.90;;;;;;5098073;28;19916;-81
2021/03/20 00:09:32;;;;;;;;;;;-2.70;99.90;;;;;;5100820;28;19908;-81
2021/03/20 00:11:58;;;;;;;;;;;-2.70;99.90;;;;;;5100848;28;19908;-81
2021/03/20 00:14:23;;;;;;;;;;;-2.70;99.90;;;;;;5099456;28;19912;-81
2021/03/20 00:16:50;;;;;;;;;;;-2.80;99.90;;;;;;5100563;28;20333;-81
2021/03/20 00:19:16;;;;;;;;;;;-2.80;99.90;;;;;;5098730;28;19939;-81
2021/03/20 00:21:42;;;;;;;;;;;-2.90;99.90;;;;;;5099748;28;19912;-81
2021/03/20 00:24:07;;;;;;;;;;;-2.90;99.90;;;;;;5099166;28;19915;-81
2021/03/20 00:26:33;;;;;;;;;;;-3.00;99.90;;;;;;5098865;28;19908;-81
2021/03/20 00:28:59;;;;;;;;;;;-3.00;99.90;;;;;;5097897;28;19995;-81
2021/03/20 00:31:24;;;;;;;;;;;-2.90;99.90;;;;;;5099129;28;19931;-81
2021/03/20 00:33:50;;;;;;;;;;;-2.90;99.90;;;;;;5097223;28;19953;-81
2021/03/20 00:36:16;;;;;;;;;;;-2.90;99.90;;;;;;5095743;28;20014;-81
2021/03/20 00:38:42;;;;;;;;;;;-2.90;99.90;;;;;;5099482;28;19916;-81
2021/03/20 00:41:08;;;;;;;;;;;-2.90;99.90;;;;;;5098226;28;20006;-81
2021/03/20 00:43:33;;;;;;;;;;;-3.00;99.90;;;;;;5098410;28;19912;-81
2021/03/20 00:45:59;;;;;;;;;;;-3.00;99.90;;;;;;5098818;28;19908;-81
2021/03/20 00:48:29;;;;;;;;;;;-3.10;99.90;;;;;;5099820;28;19908;-81
2021/03/20 00:50:55;;;;;;;;;;;-3.10;99.90;;;;;;5096750;28;19908;-81
2021/03/20 00:53:21;;;;;;;;;;;-3.10;99.90;;;;;;5096585;28;19908;-81
2021/03/20 00:55:47;;;;;;;;;;;-3.10;99.90;;;;;;5097762;28;20336;-81
2021/03/20 00:58:18;;;;;;;;;;;-3.10;99.90;;;;;;5096634;28;19908;-80
2021/03/20 01:00:44;;;;;;;;;;;-3.00;99.90;;;;;;5098098;28;19966;-80
2021/03/20 01:03:10;;;;;;;;;;;-3.00;99.90;;;;;;5097933;28;19908;-81
2021/03/20 01:05:35;;;;;;;;;;;-2.90;99.90;;;;;;5106031;28;19916;-80
2021/03/20 01:08:01;;;;;;;;;;;-2.90;99.90;;;;;;5113117;28;19918;-80
2021/03/20 01:10:27;;;;;;;;;;;-2.90;99.90;;;;;;5119196;28;20134;-80
2021/03/20 01:12:52;;;;;;;;;;;-2.90;99.90;;;;;;5118647;28;19943;-81
2021/03/20 01:15:18;;;;;;;;;;;-3.00;99.90;;;;;;5118995;28;19946;-81
2021/03/20 01:17:44;;;;;;;;;;;-3.00;99.90;;;;;;5118848;28;20365;-80
2021/03/20 01:20:10;;;;;;;;;;;-3.00;99.90;;;;;;5116562;28;19920;-80
2021/03/20 01:22:36;;;;;;;;;;;-3.00;99.90;;;;;;5119160;28;19908;-80
2021/03/20 01:25:02;;;;;;;;;;;-3.00;99.90;;;;;;5118727;28;19919;-81
2021/03/20 01:27:28;;;;;;;;;;;-3.00;99.90;;;;;;5117732;28;19930;-81
2021/03/20 01:29:53;;;;;;;;;;;-3.00;99.90;;;;;;5117952;28;19908;-81
2021/03/20 01:32:19;;;;;;;;;;;-3.10;99.90;;;;;;5118449;28;20413;-81
2021/03/20 01:34:44;;;;;;;;;;;-3.00;99.90;;;;;;5115286;28;20021;-81
2021/03/20 01:37:09;;;;;;;;;;;-2.90;99.90;;;;;;5113301;28;20005;-81
2021/03/20 01:39:35;;;;;;;;;;;-2.90;99.90;;;;;;5099626;28;19919;-81
2021/03/20 01:42:03;;;;;;;;;;;-2.80;99.90;;;;;;5117217;28;19912;-81
2021/03/20 01:44:29;;;;;;;;;;;-2.80;99.90;;;;;;5117416;28;19908;-81
2021/03/20 01:46:54;;;;;;;;;;;-2.80;99.90;;;;;;5114855;28;19914;-81
2021/03/20 01:49:29;;;;;;;;;;;-2.70;99.90;;;;;;5117757;28;19908;-81
2021/03/20 01:52:13;;;;;;;;;;;-2.70;99.90;;;;;;5116705;28;19908;-81
2021/03/20 01:54:52;;;;;;;;;;;-2.70;99.90;;;;;;5117355;28;19914;-81
2021/03/20 01:57:20;;;;;;;;;;;-2.60;99.90;;;;;;5117155;28;19907;-81
2021/03/20 01:59:46;;;;;;;;;;;-2.50;99.90;;;;;;5117682;28;19915;-81
2021/03/20 02:02:12;;;;;;;;;;;-2.50;99.90;;;;;;5107229;28;19912;-81
2021/03/20 02:04:37;;;;;;;;;;;-2.40;99.90;;;;;;5102429;28;19916;-81
2021/03/20 02:07:03;;;;;;;;;;;-2.40;99.90;;;;;;5095964;28;19919;-81
2021/03/20 02:09:28;;;;;;;;;;;-2.40;99.90;;;;;;5096595;28;20393;-81
2021/03/20 02:12:02;;;;;;;;;;;-2.30;99.90;;;;;;5095601;28;19958;-81
2021/03/20 02:14:30;;;;;;;;;;;-2.20;99.90;;;;;;5094312;28;19908;-81
2021/03/20 02:16:56;;;;;;;;;;;-2.20;99.90;;;;;;5086185;28;19909;-81
2021/03/20 02:19:36;;;;;;;;;;;-2.20;99.90;;;;;;5104056;28;19930;-81
2021/03/20 02:22:05;;;;;;;;;;;-2.10;99.90;;;;;;5105052;28;19962;-81
2021/03/20 02:24:45;;;;;;;;;;;-2.10;99.90;;;;;;5112078;28;19911;-81
2021/03/20 02:27:29;;;;;;;;;;;-2.00;99.90;;;;;;5114160;28;20352;-81
2021/03/20 02:30:13;;;;;;;;;;;-1.90;99.90;;;;;;5097713;28;19912;-81
2021/03/20 02:32:47;;;;;;;;;;;-1.80;99.90;;;;;;5096765;28;19913;-81
2021/03/20 02:35:16;;;;;;;;;;;-1.80;99.90;;;;;;5093316;28;19941;-81
2021/03/20 02:37:42;;;;;;;;;;;-1.70;99.90;;;;;;5097307;28;19912;-80
2021/03/20 02:40:14;;;;;;;;;;;-1.70;99.90;;;;;;5104892;28;19919;-81
2021/03/20 02:42:51;;;;;;;;;;;-1.60;99.90;;;;;;5115827;28;20110;-81
2021/03/20 02:45:28;;;;;;;;;;;-1.60;99.90;;;;;;5114185;28;19908;-81
2021/03/20 02:48:09;;;;;;;;;;;-1.60;99.90;;;;;;5118084;28;19915;-81
2021/03/20 02:50:45;;;;;;;;;;;-1.60;99.90;;;;;;5120412;28;20276;-81
2021/03/20 02:53:15;;;;;;;;;;;-1.60;99.90;;;;;;5119855;28;19915;-81
2021/03/20 02:55:44;;;;;;;;;;;-1.60;99.90;;;;;;5103031;28;19919;-81
2021/03/20 02:58:10;;;;;;;;;;;-1.50;99.90;;;;;;5112446;28;19919;-81
2021/03/20 03:00:38;;;;;;;;;;;-1.50;99.90;;;;;;5119321;28;19912;-81
2021/03/20 03:03:05;;;;;;;;;;;-1.50;99.90;;;;;;5100883;28;19914;-81
2021/03/20 03:05:34;;;;;;;;;;;-1.40;99.90;;;;;;5098173;28;19915;-81
2021/03/20 03:08:10;;;;;;;;;;;-1.40;99.90;;;;;;5098091;28;19908;-81
2021/03/20 03:10:39;;;;;;;;;;;-1.30;99.90;;;;;;5096256;28;20284;-81
2021/03/20 03:13:08;;;;;;;;;;;-1.30;99.90;;;;;;5098694;28;19995;-81
2021/03/20 03:15:36;;;;;;;;;;;-1.30;99.90;;;;;;5096689;28;19908;-81
2021/03/20 03:18:09;;;;;;;;;;;-1.20;99.90;;;;;;5099563;28;19913;-81
2021/03/20 03:20:39;;;;;;;;;;;-1.20;99.90;;;;;;5099203;28;19912;-81
2021/03/20 03:23:22;;;;;;;;;;;-1.20;99.90;;;;;;5096557;28;19908;-81
2021/03/20 03:25:49;;;;;;;;;;;-1.10;99.90;;;;;;5099951;28;19995;-81
2021/03/20 03:28:18;;;;;;;;;;;-1.10;99.90;;;;;;5100086;28;20371;-81
2021/03/20 03:30:44;;;;;;;;;;;-1.10;99.90;;;;;;5114494;28;20318;-81
2021/03/20 03:33:14;;;;;;;;;;;-1.10;99.90;;;;;;5121651;28;19908;-81
2021/03/20 03:35:44;;;;;;;;;;;-1.10;99.90;;;;;;5121327;28;19916;-81
2021/03/20 03:38:16;;;;;;;;;;;-1.00;99.90;;;;;;5121024;28;19929;-81
2021/03/20 03:40:44;;;;;;;;;;;-1.00;99.90;;;;;;5121139;28;19922;-81
2021/03/20 03:43:10;;;;;;;;;;;-1.00;99.90;;;;;;5120923;28;20429;-81
2021/03/20 03:45:36;;;;;;;;;;;-1.00;99.90;;;;;;5094902;28;20036;-81
2021/03/20 03:48:02;;;;;;;;;;;-1.00;99.90;;;;;;5115519;28;20380;-81
2021/03/20 03:50:30;;;;;;;;;;;-1.00;99.90;;;;;;5118257;28;19915;-81
2021/03/20 03:52:56;;;;;;;;;;;-1.00;99.90;;;;;;5118416;28;19914;-81
2021/03/20 03:55:22;;;;;;;;;;;-1.00;99.90;;;;;;5118048;28;20400;-81
2021/03/20 03:57:47;;;;;;;;;;;-1.00;99.90;;;;;;5117787;28;19912;-81
2021/03/20 04:00:16;;;;;;;;;;;-1.00;99.90;;;;;;5117492;28;19986;-81
2021/03/20 04:02:47;;;;;;;;;;;-1.00;99.90;;;;;;5117489;28;19912;-81
2021/03/20 04:05:13;;;;;;;;;;;-1.00;99.90;;;;;;5111910;28;19907;-81
2021/03/20 04:07:50;;;;;;;;;;;-1.00;99.90;;;;;;5118700;28;19908;-81
2021/03/20 04:10:40;;;;;;;;;;;-1.00;99.90;;;;;;5118444;28;19960;-81
2021/03/20 04:13:06;;;;;;;;;;;-1.00;99.90;;;;;;5117047;28;19908;-81
2021/03/20 04:15:38;;;;;;;;;;;-1.00;99.90;;;;;;5116778;28;19935;-81
2021/03/20 04:18:11;;;;;;;;;;;-1.00;99.90;;;;;;5118321;28;20379;-81
2021/03/20 04:20:37;;;;;;;;;;;-1.00;99.90;;;;;;5116330;28;19912;-82
2021/03/20 04:23:14;;;;;;;;;;;-1.00;99.90;;;;;;5115289;28;19912;-81
2021/03/20 04:25:39;;;;;;;;;;;-1.00;99.90;;;;;;5115222;28;19915;-81
2021/03/20 04:28:15;;;;;;;;;;;-1.00;99.90;;;;;;5099075;28;20273;-82
2021/03/20 04:30:43;;;;;;;;;;;-1.00;99.90;;;;;;5098678;28;19907;-81
2021/03/20 04:33:15;;;;;;;;;;;-0.90;99.90;;;;;;5116255;28;19908;-81
2021/03/20 04:35:43;;;;;;;;;;;-0.90;99.90;;;;;;5114611;28;19915;-81
2021/03/20 04:38:09;;;;;;;;;;;-0.90;99.90;;;;;;5116309;28;19965;-81
2021/03/20 04:40:50;;;;;;;;;;;-0.90;99.90;;;;;;5113747;28;20010;-81
2021/03/20 04:43:19;;;;;;;;;;;-0.90;99.90;;;;;;5116660;28;19951;-81
2021/03/20 04:46:05;;;;;;;;;;;-1.00;99.90;;;;;;5115916;28;19908;-82
2021/03/20 04:48:39;;;;;;;;;;;-0.90;99.90;;;;;;5106107;28;19908;-81
2021/03/20 04:51:08;;;;;;;;;;;-1.00;99.90;;;;;;5109360;28;19912;-81
2021/03/20 04:53:34;;;;;;;;;;;-1.00;99.90;;;;;;5114160;28;19914;-81
2021/03/20 04:56:02;;;;;;;;;;;-1.00;99.90;;;;;;5114112;28;19957;-81
2021/03/20 04:58:39;;;;;;;;;;;-1.00;99.90;;;;;;5115992;28;20276;-81
2021/03/20 05:01:23;;;;;;;;;;;-1.00;99.90;;;;;;5115297;28;19933;-81
2021/03/20 05:03:58;;;;;;;;;;;-1.00;99.90;;;;;;5114045;28;19987;-81
2021/03/20 05:06:24;;;;;;;;;;;-1.10;99.90;;;;;;5113760;28;19908;-81
2021/03/20 05:08:54;;;;;;;;;;;-1.10;99.90;;;;;;5116070;28;19990;-79
2021/03/20 05:11:20;;;;;;;;;;;-1.10;99.90;;;;;;5117405;28;19915;-79
2021/03/20 05:14:06;;;;;;;;;;;-1.10;99.90;;;;;;5118127;28;19907;-79
2021/03/20 05:16:32;;;;;;;;;;;-1.10;99.90;;;;;;5117701;28;19916;-79
2021/03/20 05:18:57;;;;;;;;;;;-1.10;99.90;;;;;;5097179;28;20010;-79
2021/03/20 05:21:25;;;;;;;;;;;-1.10;99.90;;;;;;5087400;28;19915;-80
2021/03/20 05:23:51;;;;;;;;;;;-1.10;99.90;;;;;;5098418;28;19908;-80
2021/03/20 05:26:16;;;;;;;;;;;-1.20;99.90;;;;;;5098108;28;19991;-79
2021/03/20 05:28:42;;;;;;;;;;;-1.10;99.90;;;;;;5097277;28;19955;-79
2021/03/20 05:31:07;;;;;;;;;;;-1.10;99.90;;;;;;5096215;28;19924;-78
2021/03/20 05:33:33;;;;;;;;;;;-1.10;99.90;;;;;;5097194;28;20338;-79
2021/03/20 05:35:59;;;;;;;;;;;-1.10;99.90;;;;;;5098293;28;19951;-80
2021/03/20 05:38:25;;;;;;;;;;;-1.20;99.90;;;;;;5089967;28;19953;-80
2021/03/20 05:40:56;;;;;;;;;;;-1.10;99.90;;;;;;5097259;28;19908;-80
2021/03/20 05:43:38;;;;;;;;;;;-1.10;99.90;;;;;;5095486;28;19919;-78
2021/03/20 05:46:16;;;;;;;;;;;-1.10;99.90;;;;;;5102568;28;19908;-79
2021/03/20 05:48:56;;;;;;;;;;;-1.10;99.90;;;;;;5117813;28;19983;-80
2021/03/20 05:51:45;;;;;;;;;;;-1.10;99.90;;;;;;5109350;28;19916;-80
2021/03/20 05:54:35;;;;;;;;;;;-1.10;99.90;;;;;;5089266;28;19915;-79
2021/03/20 05:57:06;;;;;;;;;;;-1.10;99.90;;;;;;5094193;28;19931;-79
2021/03/20 05:59:51;;;;;;;;;;;-1.00;99.90;;;;;;5095384;28;20176;-78
2021/03/20 06:02:35;;;;;;;;;;;-1.10;99.90;;;;;;5096806;28;19908;-78
2021/03/20 06:05:04;;;;;;;;;;;-1.10;99.90;;;;;;5095026;28;19930;-79
2021/03/20 06:07:38;;;;;;;;;;;-1.10;99.90;;;;;;5095748;28;19961;-79
2021/03/20 06:10:06;;;;;;;;;;;-1.10;99.90;;;;;;5095892;28;19915;-79
2021/03/20 06:12:32;;;;;;;;;;;-1.20;99.90;;;;;;5095731;28;19912;-79
2021/03/20 06:15:03;;;;;;;;;;;-1.10;99.90;;;;;;5096025;28;20360;-79
2021/03/20 06:17:29;;;;;;;;;;;-1.10;99.90;;;;;;5095376;28;19908;-79
2021/03/20 06:20:14;;;;;;;;;;;-1.10;99.90;;;;;;5094614;28;19995;-79
2021/03/20 06:22:39;;;;;;;;;;;-1.10;99.90;;;;;;5095136;28;20365;-79
2021/03/20 06:25:23;;;;;;;;;;;-1.10;99.90;;;;;;5095742;28;19956;-78
2021/03/20 06:27:52;;;;;;;;;;;-1.00;99.90;;;;;;5095597;28;20003;-79
2021/03/20 06:30:18;;;;;;;;;;;-0.90;99.90;;;;;;5095543;28;20396;-80
2021/03/20 06:32:45;;;;;;;;;;;-0.80;99.90;;;;;;5096558;28;19908;-80
2021/03/20 06:35:16;;;;;;;;;;;-0.80;99.90;;;;;;5096168;28;19920;-80
2021/03/20 06:37:55;;;;;;;;;;;-0.70;99.90;;;;;;5094086;28;19934;-80
2021/03/20 06:40:24;;;;;;;;;;;-0.70;99.90;;;;;;5095289;28;19912;-79
2021/03/20 06:42:50;;;;;;;;;;;-0.60;99.90;;;;;;5092981;28;20340;-79
2021/03/20 06:45:17;;;;;;;;;;;-0.60;99.90;;;;;;5094074;28;19908;-79
2021/03/20 06:47:45;;;;;;;;;;;-0.40;99.90;;;;;;5093438;28;19908;-80
2021/03/20 06:50:40;;;;;;;;;;;-0.40;99.90;;;;;;5091229;28;19962;-75
2021/03/20 06:53:07;;;;;;;;;;;-0.40;99.90;;;;;;5086116;28;19915;-75
2021/03/20 06:55:51;;;;;;;;;;;-0.40;99.90;;;;;;5090740;28;19912;-77
2021/03/20 06:58:19;;;;;;;;;;;-0.40;99.90;;;;;;5091239;28;20006;-75
2021/03/20 07:00:45;;;;;;;;;;;-0.40;99.90;;;;;;5091171;28;20257;-74
2021/03/20 07:03:10;;;;;;;;;;;-0.40;99.90;;;;;;5091412;28;19912;-75
2021/03/20 07:05:48;;;;;;;;;;;-0.40;99.90;;;;;;5091002;28;19931;-76
2021/03/20 07:08:34;;;;;;;;;;;-0.40;99.90;;;;;;5091195;28;20098;-77
2021/03/20 07:11:00;;;;;;;;;;;-0.40;99.90;;;;;;5086863;28;20628;-75
2021/03/20 07:13:27;;;;;;;;;;;-0.40;99.90;;;;;;5091233;28;19908;-75
2021/03/20 07:16:11;;;;;;;;;;;-0.30;99.90;;;;;;5090709;28;19912;-76
2021/03/20 07:18:38;;;;;;;;;;;-0.30;99.90;;;;;;5091052;28;19908;-75
2021/03/20 07:21:36;;;;;;;;;;;-0.30;99.90;;;;;;5090912;28;20373;-76
2021/03/20 07:24:04;;;;;;;;;;;-0.30;99.90;;;;;;5080386;28;20021;-76
2021/03/20 07:26:31;;;;;;;;;;;-0.40;99.90;;;;;;5094153;28;19951;-75
2021/03/20 07:28:58;;;;;;;;;;;-0.50;99.90;;;;;;5094584;28;19924;-76
2021/03/20 07:31:23;;;;;;;;;;;-0.60;99.90;;;;;;5094661;28;19943;-75
2021/03/20 07:33:50;;;;;;;;;;;-0.60;99.90;;;;;;5094382;28;19963;-75
2021/03/20 07:36:30;;;;;;;;;;;-0.60;99.90;;;;;;5094104;28;19920;-75
2021/03/20 07:39:10;;;;;;;;;;;-0.60;99.90;;;;;;5094342;28;19956;-75
2021/03/20 07:41:43;;;;;;;;;;;-0.40;99.90;;;;;;5094410;28;20344;-75
2021/03/20 07:44:10;;;;;;;;;;;-0.30;99.90;;;;;;5093679;28;20345;-75
2021/03/20 07:46:36;;;;;;;;;;;-0.20;99.90;;;;;;5093998;28;19955;-75
2021/03/20 07:49:06;;;;;;;;;;;-0.10;99.90;;;;;;5094173;28;19912;-75
2021/03/20 07:51:49;;;;;;;;;;;0.00;99.90;;;;;;5092440;28;20466;-75
2021/03/20 07:54:22;;;;;;;;;;;0.10;99.90;;;;;;5090918;28;20277;-74
2021/03/20 07:56:48;;;;;;;;;;;0.10;99.90;;;;;;5112623;28;19908;-74
2021/03/20 07:59:28;;;;;;;;;;;0.10;99.90;;;;;;5114443;28;20280;-74
2021/03/20 08:01:56;;;;;;;;;;;0.10;99.90;;;;;;5114394;28;20376;-74
2021/03/20 08:04:40;;;;;;;;;;;0.10;99.90;;;;;;5113057;28;19919;-74
2021/03/20 08:07:06;;;;;;;;;;;0.20;99.90;;;;;;5112600;28;19908;-74
2021/03/20 08:09:31;;;;;;;;;;;0.20;99.90;;;;;;5114316;28;19995;-75
2021/03/20 08:11:57;;;;;;;;;;;0.30;99.90;;;;;;5114206;28;19954;-75
2021/03/20 08:14:34;;;;;;;;;;;0.40;99.90;;;;;;5114268;28;19994;-74
2021/03/20 08:17:00;;;;;;;;;;;0.50;99.90;;;;;;5113721;28;20048;-74
2021/03/20 08:19:29;;;;;;;;;;;0.60;99.90;;;;;;5113823;28;19951;-74
2021/03/20 08:21:55;;;;;;;;;;;0.60;99.90;;;;;;5109138;28;20284;-75
2021/03/20 08:24:34;;;;;;;;;;;0.70;99.90;;;;;;5093394;28;19914;-74
2021/03/20 08:27:03;;;;;;;;;;;0.60;99.90;;;;;;5093245;28;19908;-75
2021/03/20 08:29:46;;;;;;;;;;;0.50;99.90;;;;;;5092046;28;19909;-75
2021/03/20 08:32:18;;;;;;;;;;;0.50;99.90;;;;;;5093115;28;19919;-75
2021/03/20 08:34:43;;;;;;;;;;;0.40;99.90;;;;;;5091932;28;20387;-75
2021/03/20 08:37:15;;;;;;;;;;;0.30;99.90;;;;;;5091453;28;20154;-75
2021/03/20 08:40:02;;;;;;;;;;;0.20;99.90;;;;;;5093092;28;19995;-74
2021/03/20 08:42:27;;;;;;;;;;;0.20;99.90;;;;;;5093116;28;19909;-75
2021/03/20 08:45:07;;;;;;;;;;;0.10;99.90;;;;;;5093071;28;20379;-75
2021/03/20 08:47:39;;;;;;;;;;;0.10;99.90;;;;;;5092795;28;19908;-75
2021/03/20 08:50:23;;;;;;;;;;;0.00;99.90;;;;;;5092859;28;19908;-74
2021/03/20 08:53:07;;;;;;;;;;;0.00;99.90;;;;;;5085607;28;19908;-75
2021/03/20 08:55:37;;;;;;;;;;;0.00;99.90;;;;;;5092855;28;19913;-75
2021/03/20 08:58:03;;;;;;;;;;;-0.10;99.90;;;;;;5092640;28;19915;-75
2021/03/20 09:00:28;;;;;;;;;;;-0.10;99.90;;;;;;5092724;28;19912;-75
2021/03/20 09:02:55;;;;;;;;;;;-0.10;99.90;;;;;;5082499;28;19908;-75
2021/03/20 09:05:30;;;;;;;;;;;-0.20;99.90;;;;;;5092484;28;20006;-75
2021/03/20 09:08:13;;;;;;;;;;;-0.20;99.90;;;;;;5088722;28;19909;-75
2021/03/20 09:10:44;;;;;;;;;;;-0.30;99.90;;;;;;5084159;28;19953;-75
2021/03/20 09:13:16;;;;;;;;;;;-0.30;99.90;;;;;;5092696;28;19915;-75
2021/03/20 09:15:44;;;;;;;;;;;0.00;99.90;;;;;;5092101;28;20281;-75
2021/03/20 09:18:12;;;;;;;;;;;0.40;99.90;;;;;;5092152;28;19908;-75
2021/03/20 09:20:43;;;;;;;;;;;0.50;99.90;;;;;;5083445;28;19912;-76
2021/03/20 09:23:18;;;;;;;;;;;0.70;99.90;;;;;;5092221;28;19915;-76
2021/03/20 09:25:43;;;;;;;;;;;1.10;99.90;;;;;;5092063;28;19908;-76
2021/03/20 09:28:27;;;;;;;;;;;2.00;99.90;;;;;;5083386;28;19915;-76
2021/03/20 09:30:55;;;;;;;;;;;2.80;99.90;;;;;;5092143;28;19915;-76
2021/03/20 09:33:27;;;;;;;;;;;2.90;98.10;;;;;;5091851;28;19908;-76
2021/03/20 09:35:55;;;;;;;;;;;3.00;98.70;;;;;;5092003;28;19922;-76
2021/03/20 09:38:35;;;;;;;;;;;3.40;98.20;;;;;;5084770;28;20334;-76
2021/03/20 09:41:02;;;;;;;;;;;3.50;96.70;;;;;;5091734;28;19959;-76
2021/03/20 09:43:36;;;;;;;;;;;3.80;95.30;;;;;;5092041;28;19908;-76
2021/03/20 09:46:37;;;;;;;;;;;3.80;95.40;;;;;;5091496;28;19912;-76
2021/03/20 09:49:23;;;;;;;;;;;4.10;96.10;;;;;;5069120;28;20012;-76
2021/03/20 09:51:51;;;;;;;;;;;5.20;96.00;;;;;;5089953;28;20357;-76
2021/03/20 09:54:29;;;;;;;;;;;6.00;93.80;;;;;;5091941;28;20002;-76
2021/03/20 09:56:58;;;;;;;;;;;6.20;92.20;;;;;;5091477;28;19951;-76
2021/03/20 09:59:33;;;;;;;;;;;6.30;92.40;;;;;;5091558;28;20017;-76
2021/03/20 10:02:00;;;;;;;;;;;6.70;91.40;;;;;;5091568;28;20399;-76
2021/03/20 10:04:36;;;;;;;;;;;6.70;90.20;;;;;;5091673;28;19915;-76
2021/03/20 10:07:15;;;;;;;;;;;6.60;90.40;;;;;;5087057;28;20037;-76
2021/03/20 10:09:52;;;;;;;;;;;6.70;91.90;;;;;;5083347;28;19961;-75
2021/03/20 10:12:19;;;;;;;;;;;7.10;90.10;;;;;;5090344;28;19915;-76
2021/03/20 10:14:53;;;;;;;;;;;7.70;86.30;;;;;;5091531;28;19994;-76
2021/03/20 10:17:20;;;;;;;;;;;8.00;86.30;;;;;;5090872;28;20040;-76
2021/03/20 10:19:50;;;;;;;;;;;8.30;83.40;;;;;;5091425;28;19912;-76
2021/03/20 10:22:23;;;;;;;;;;;8.70;84.60;;;;;;5091414;28;19918;-76
2021/03/20 10:24:50;;;;;;;;;;;9.10;77.80;;;;;;5091269;28;19909;-76
2021/03/20 10:27:36;;;;;;;;;;;9.30;84.30;;;;;;5091143;28;19909;-76
2021/03/20 10:30:16;;;;;;;;;;;9.40;76.50;;;;;;5091423;28;19916;-76
2021/03/20 10:33:00;;;;;;;;;;;9.50;75.40;;;;;;5091225;28;19915;-76
2021/03/20 10:35:27;;;;;;;;;;;9.10;76.30;;;;;;5091149;28;19923;-76
2021/03/20 10:37:52;;;;;;;;;;;9.10;76.70;;;;;;5084998;28;20007;-76
2021/03/20 10:40:25;;;;;;;;;;;9.20;73.40;;;;;;5091107;28;20058;-76
2021/03/20 10:42:58;;;;;;;;;;;9.20;74.00;;;;;;5091213;28;19994;-76
2021/03/20 10:45:26;;;;;;;;;;;9.30;69.10;;;;;;5091397;28;20288;-76
2021/03/20 10:47:57;;;;;;;;;;;9.40;75.50;;;;;;5090680;28;19915;-76
2021/03/20 10:50:36;;;;;;;;;;;9.80;71.60;;;;;;5091294;28;19912;-76
2021/03/20 10:53:04;;;;;;;;;;;10.20;71.50;;;;;;5091125;28;19919;-76
2021/03/20 10:55:35;;;;;;;;;;;10.00;61.80;;;;;;5091133;28;19914;-76
2021/03/20 10:58:01;;;;;;;;;;;9.60;68.90;;;;;;5091239;28;19908;-76
2021/03/20 11:00:43;;;;;;;;;;;9.20;65.60;;;;;;5094944;28;19927;-76
2021/03/20 11:03:18;;;;;;;;;;;9.10;66.20;;;;;;5094961;28;19908;-76
2021/03/20 11:05:44;;;;;;;;;;;9.20;66.60;;;;;;5094579;28;19915;-76
2021/03/20 11:08:11;;;;;;;;;;;9.10;65.30;;;;;;5088814;28;20362;-76
2021/03/20 11:10:38;;;;;;;;;;;9.10;64.30;;;;;;5094599;28;20017;-76
2021/03/20 11:13:06;;;;;;;;;;;9.10;66.70;;;;;;5094853;28;19932;-76
2021/03/20 11:15:33;;;;;;;;;;;9.00;61.80;;;;;;5095123;28;19918;-76
2021/03/20 11:18:00;;;;;;;;;;;9.40;64.30;;;;;;5094526;28;19908;-76
2021/03/20 11:20:36;;;;;;;;;;;9.50;62.80;;;;;;5094624;28;19912;-76
2021/03/20 11:23:02;;;;;;;;;;;9.90;60.10;;;;;;5094529;28;19916;-76
2021/03/20 11:25:36;;;;;;;;;;;9.60;60.30;;;;;;5094488;28;20327;-76
2021/03/20 11:28:05;;;;;;;;;;;9.40;57.80;;;;;;5094344;28;20113;-76
2021/03/20 11:30:33;;;;;;;;;;;8.60;58.20;;;;;;5094413;28;20330;-76
2021/03/20 11:33:00;;;;;;;;;;;8.40;59.50;;;;;;5094607;28;19954;-76
2021/03/20 11:35:35;;;;;;;;;;;8.50;61.50;;;;;;5094220;28;19973;-76
2021/03/20 11:38:02;;;;;;;;;;;9.10;62.90;;;;;;5088174;28;20349;-76
2021/03/20 11:40:28;;;;;;;;;;;9.30;60.80;;;;;;5094031;28;19924;-76
2021/03/20 11:42:55;;;;;;;;;;;9.20;62.80;;;;;;5092984;28;20276;-76
2021/03/20 11:45:26;;;;;;;;;;;9.30;66.30;;;;;;5094018;28;19908;-76
2021/03/20 11:47:53;;;;;;;;;;;9.10;62.60;;;;;;5093818;28;19908;-76
2021/03/20 11:50:24;;;;;;;;;;;8.90;63.10;;;;;;5093910;28;19961;-76
2021/03/20 11:52:52;;;;;;;;;;;8.50;60.40;;;;;;5094237;28;19914;-76
2021/03/20 11:55:27;;;;;;;;;;;8.50;59.50;;;;;;5094110;28;20320;-76
2021/03/20 11:57:58;;;;;;;;;;;8.70;59.30;;;;;;5093714;28;19915;-76
2021/03/20 12:00:30;;;;;;;;;;;8.70;58.30;;;;;;5093715;28;19912;-76
2021/03/20 12:02:55;;;;;;;;;;;8.50;59.30;;;;;;5092581;28;19919;-76
2021/03/20 12:05:25;;;;;;;;;;;8.10;60.30;;;;;;5094090;28;19909;-75
2021/03/20 12:07:51;;;;;;;;;;;7.80;61.50;;;;;;5085933;28;19915;-76
2021/03/20 12:10:21;;;;;;;;;;;7.50;58.60;;;;;;5093303;28;20276;-76
2021/03/20 12:12:49;;;;;;;;;;;7.10;59.40;;;;;;5093590;28;20002;-76
2021/03/20 12:15:22;;;;;;;;;;;6.80;59.00;;;;;;5093436;28;19909;-76
2021/03/20 12:17:48;;;;;;;;;;;6.50;59.10;;;;;;5093271;28;20042;-76
2021/03/20 12:20:33;;;;;;;;;;;6.40;62.20;;;;;;5093621;28;19999;-76
2021/03/20 12:23:10;;;;;;;;;;;6.10;61.40;;;;;;5092248;28;19908;-78
2021/03/20 12:25:44;;;;;;;;;;;5.60;64.00;;;;;;5093111;28;19923;-77
2021/03/20 12:28:25;;;;;;;;;;;5.40;61.10;;;;;;5093272;28;19998;-76
2021/03/20 12:31:11;;;;;;;;;;;5.10;63.50;;;;;;5093268;28;19908;-76
2021/03/20 12:33:42;;;;;;;;;;;4.90;63.30;;;;;;5093159;28;19908;-77
2021/03/20 12:36:15;;;;;;;;;;;4.70;60.30;;;;;;5092662;28;20284;-77
2021/03/20 12:38:40;;;;;;;;;;;4.60;63.10;;;;;;5086997;28;19962;-76
2021/03/20 12:41:05;;;;;;;;;;;4.50;67.40;;;;;;5092906;28;19935;-76
2021/03/20 12:43:31;;;;;;;;;;;4.30;70.20;;;;;;5091704;28;19912;-76
2021/03/20 12:45:58;;;;;;;;;;;4.20;67.90;;;;;;5092755;28;19908;-76
2021/03/20 12:48:24;;;;;;;;;;;4.20;69.70;;;;;;5092895;28;19912;-76
2021/03/20 12:50:54;;;;;;;;;;;4.10;67.60;;;;;;5093012;28;20065;-76
2021/03/20 12:53:20;;;;;;;;;;;4.10;67.60;;;;;;5092841;28;19908;-76
2021/03/20 12:55:45;;;;;;;;;;;4.00;69.50;;;;;;5092451;28;19908;-76
2021/03/20 12:58:11;;;;;;;;;;;4.10;70.40;;;;;;5092653;28;19912;-76
2021/03/20 13:00:36;;;;;;;;;;;4.00;69.40;;;;;;5092685;28;19912;-77
2021/03/20 13:03:02;;;;;;;;;;;4.00;70.00;;;;;;5092458;28;19912;-77
2021/03/20 13:05:29;;;;;;;;;;;3.90;72.60;;;;;;5092584;28;20433;-76
2021/03/20 13:07:55;;;;;;;;;;;3.90;71.30;;;;;;5086348;28;19953;-76
2021/03/20 13:10:21;;;;;;;;;;;3.80;74.10;;;;;;5092369;28;19912;-76
2021/03/20 13:12:46;;;;;;;;;;;3.90;76.80;;;;;;5092305;28;19912;-76
2021/03/20 13:15:12;;;;;;;;;;;3.70;76.00;;;;;;5092383;28;19919;-76
2021/03/20 13:17:38;;;;;;;;;;;3.70;76.90;;;;;;5091810;28;19999;-76
2021/03/20 13:20:04;;;;;;;;;;;3.70;76.20;;;;;;5092348;28;19958;-76
2021/03/20 13:22:30;;;;;;;;;;;3.70;74.60;;;;;;5091685;28;20365;-76
2021/03/20 13:24:55;;;;;;;;;;;3.60;74.00;;;;;;5092404;28;19951;-76
2021/03/20 13:27:21;;;;;;;;;;;3.70;75.10;;;;;;5091772;28;19912;-76
2021/03/20 13:29:46;;;;;;;;;;;3.80;75.70;;;;;;5092099;28;19916;-76
2021/03/20 13:32:12;;;;;;;;;;;3.90;76.70;;;;;;5090720;28;19912;-76
2021/03/20 13:34:37;;;;;;;;;;;3.80;73.00;;;;;;5092030;28;19919;-76
2021/03/20 13:37:03;;;;;;;;;;;3.80;73.30;;;;;;5087221;28;19916;-76
2021/03/20 13:39:29;;;;;;;;;;;3.70;73.90;;;;;;5090014;28;19943;-76
2021/03/20 13:41:54;;;;;;;;;;;3.60;74.40;;;;;;5091888;28;19931;-76
2021/03/20 13:44:20;;;;;;;;;;;3.70;73.30;;;;;;5091999;28;19915;-77
2021/03/20 13:46:46;;;;;;;;;;;3.80;75.30;;;;;;5091282;28;20293;-76
2021/03/20 13:49:11;;;;;;;;;;;3.90;73.50;;;;;;5091911;28;20490;-76
2021/03/20 13:51:38;;;;;;;;;;;4.00;74.60;;;;;;5091719;28;19983;-76
2021/03/20 13:54:04;;;;;;;;;;;3.90;74.20;;;;;;5092043;28;19908;-76
2021/03/20 13:56:30;;;;;;;;;;;3.90;74.20;;;;;;5091252;28;19962;-76
2021/03/20 13:58:55;;;;;;;;;;;3.80;74.80;;;;;;5090263;28;19908;-76
2021/03/20 14:01:21;;;;;;;;;;;3.90;76.00;;;;;;5091345;28;19908;-76
2021/03/20 14:03:46;;;;;;;;;;;4.00;76.00;;;;;;5090414;28;20393;-76
2021/03/20 14:06:12;;;;;;;;;;;4.10;73.30;;;;;;5089545;28;20296;-76
2021/03/20 14:08:37;;;;;;;;;;;4.10;71.80;;;;;;5087824;28;19954;-76
2021/03/20 14:11:04;;;;;;;;;;;4.20;74.40;;;;;;5091501;28;19954;-77
2021/03/20 14:13:30;;;;;;;;;;;4.30;75.60;;;;;;5091391;28;20385;-77
2021/03/20 14:15:55;;;;;;;;;;;4.20;74.50;;;;;;5084008;28;19920;-76
2021/03/20 14:18:23;;;;;;;;;;;4.20;76.30;;;;;;5088209;28;19925;-76
2021/03/20 14:20:51;;;;;;;;;;;4.10;75.40;;;;;;5084776;28;19916;-77
2021/03/20 14:23:17;;;;;;;;;;;4.10;76.40;;;;;;5088135;28;20316;-76
2021/03/20 14:25:43;;;;;;;;;;;4.10;75.50;;;;;;5090532;28;19995;-76
2021/03/20 14:28:09;;;;;;;;;;;4.10;75.50;;;;;;5090908;28;20062;-76
2021/03/20 14:30:43;;;;;;;;;;;4.20;76.70;;;;;;5089835;28;19909;-77
2021/03/20 14:33:09;;;;;;;;;;;4.30;75.10;;;;;;5091906;28;19909;-76
2021/03/20 14:35:34;;;;;;;;;;;4.20;72.90;;;;;;5095272;28;19926;-77
2021/03/20 14:38:00;;;;;;;;;;;4.10;75.90;;;;;;5089451;28;19908;-77
2021/03/20 14:40:33;;;;;;;;;;;4.10;75.60;;;;;;5095023;28;19982;-76
2021/03/20 14:42:59;;;;;;;;;;;4.10;76.10;;;;;;5095157;28;19998;-77